createdAt,value
2023-03-25T00:01:52.009Z,97291.88
2023-03-25T00:04:21.140Z,97292.66
2023-03-25T00:06:51.642Z,97291.25
2023-03-25T00:09:21.329Z,97297.69
2023-03-25T00:11:52.431Z,97290.25
2023-03-25T00:14:22.968Z,97281.84
2023-03-25T00:16:53.661Z,97277.03
2023-03-25T00:19:23.088Z,97282.84
2023-03-25T00:21:54.998Z,97277.63
2023-03-25T00:24:25.045Z,97277.22
2023-03-25T00:26:54.314Z,97287.25
2023-03-25T00:29:23.947Z,97281.63
2023-03-25T00:31:53.585Z,97273.63
2023-03-25T00:34:21.956Z,97273.63
2023-03-25T00:36:50.913Z,97277.84
2023-03-25T00:39:22.227Z,97276.22
2023-03-25T00:41:52.232Z,97272.81
2023-03-25T00:44:22.940Z,97265.59
2023-03-25T00:46:51.966Z,97268.00
2023-03-25T00:49:25.019Z,97263.19
2023-03-25T00:51:55.661Z,97269.63
2023-03-25T00:54:26.395Z,97263.78
2023-03-25T00:56:56.465Z,97270.41
2023-03-25T00:59:25.922Z,97262.59
2023-03-25T01:01:56.903Z,97261.56
2023-03-25T01:04:27.205Z,97271.00
2023-03-25T01:06:56.923Z,97265.59
2023-03-25T01:09:27.266Z,97267.19
2023-03-25T01:11:57.929Z,97262.59
2023-03-25T01:14:29.692Z,97266.00
2023-03-25T01:17:01.575Z,97261.16
2023-03-25T01:19:31.030Z,97261.16
2023-03-25T01:22:01.171Z,97253.34
2023-03-25T01:24:33.109Z,97258.78
2023-03-25T01:27:02.444Z,97260.75
2023-03-25T01:29:33.333Z,97256.34
2023-03-25T01:32:04.197Z,97261.78
2023-03-25T01:34:38.687Z,97261.38
2023-03-25T01:37:10.555Z,97268.78
2023-03-25T01:39:42.302Z,97262.75
2023-03-25T01:42:13.610Z,97261.97
2023-03-25T01:45:30.249Z,97255.75
2023-03-25T01:48:10.713Z,97259.53
2023-03-25T01:50:44.183Z,97263.16
2023-03-25T01:53:14.413Z,97254.31
2023-03-25T01:55:48.583Z,97248.28
2023-03-25T01:58:23.281Z,97263.75
2023-03-25T02:00:54.923Z,97264.56
2023-03-25T02:03:26.839Z,97266.94
2023-03-25T02:06:03.428Z,97267.56
2023-03-25T02:08:38.348Z,97263.75
2023-03-25T02:11:12.699Z,97261.94
2023-03-25T02:13:44.532Z,97256.53
2023-03-25T02:16:30.769Z,97261.53
2023-03-25T02:19:33.548Z,97253.31
2023-03-25T02:22:42.074Z,97254.53
2023-03-25T02:25:55.554Z,97255.09
2023-03-25T02:28:37.726Z,97260.56
2023-03-25T02:31:39.538Z,97263.56
2023-03-25T02:34:43.353Z,97260.31
2023-03-25T02:38:06.678Z,97263.34
2023-03-25T02:40:46.999Z,97265.13
2023-03-25T02:43:25.868Z,97260.31
2023-03-25T02:46:03.251Z,97270.34
2023-03-25T02:48:41.462Z,97265.38
2023-03-25T02:51:18.759Z,97261.94
2023-03-25T02:53:52.634Z,97254.72
2023-03-25T02:56:26.227Z,97246.88
2023-03-25T02:58:59.244Z,97252.31
2023-03-25T03:01:28.233Z,97250.47
2023-03-25T03:03:58.539Z,97250.69
2023-03-25T03:06:29.108Z,97246.28
2023-03-25T03:09:26.038Z,97244.25
2023-03-25T03:12:15.138Z,97243.84
2023-03-25T03:15:09.171Z,97234.63
2023-03-25T03:17:50.861Z,97238.06
2023-03-25T03:20:36.007Z,97236.84
2023-03-25T03:23:14.419Z,97243.28
2023-03-25T03:25:54.792Z,97242.66
2023-03-25T03:28:34.804Z,97246.69
2023-03-25T03:31:12.939Z,97249.06
2023-03-25T03:34:11.149Z,97253.28
2023-03-25T03:36:47.396Z,97253.06
2023-03-25T03:39:23.166Z,97256.47
2023-03-25T03:42:03.584Z,97250.66
2023-03-25T03:44:38.087Z,97258.69
2023-03-25T03:47:14.293Z,97263.09
2023-03-25T03:49:52.315Z,97255.88
2023-03-25T03:52:30.201Z,97254.69
2023-03-25T03:55:05.230Z,97254.47
2023-03-25T03:57:47.088Z,97253.88
2023-03-25T04:00:26.581Z,97262.91
2023-03-25T04:03:04.904Z,97266.31
2023-03-25T04:05:38.896Z,97271.31
2023-03-25T04:08:21.964Z,97267.91
2023-03-25T04:10:59.623Z,97266.31
2023-03-25T04:13:37.294Z,97266.31
2023-03-25T04:16:08.929Z,97268.28
2023-03-25T04:18:40.160Z,97269.69
2023-03-25T04:21:15.499Z,97267.84
2023-03-25T04:23:46.720Z,97270.28
2023-03-25T04:26:17.058Z,97267.84
2023-03-25T04:28:49.467Z,97264.66
2023-03-25T04:31:21.041Z,97266.63
2023-03-25T04:33:51.651Z,97265.06
2023-03-25T04:36:21.471Z,97271.66
2023-03-25T04:38:53.793Z,97267.41
2023-03-25T04:41:23.600Z,97265.41
2023-03-25T04:43:54.509Z,97276.25
2023-03-25T04:46:24.933Z,97280.06
2023-03-25T04:48:56.986Z,97271.03
2023-03-25T04:51:27.483Z,97281.66
2023-03-25T04:53:56.993Z,97279.44
2023-03-25T04:56:26.539Z,97277.44
2023-03-25T04:58:57.352Z,97275.00
2023-03-25T05:01:32.877Z,97287.47
2023-03-25T05:04:06.138Z,97284.25
2023-03-25T05:06:36.036Z,97296.66
2023-03-25T05:09:07.303Z,97301.06
2023-03-25T05:11:40.249Z,97288.81
2023-03-25T05:14:11.631Z,97291.44
2023-03-25T05:16:41.925Z,97287.03
2023-03-25T05:19:13.178Z,97283.00
2023-03-25T05:21:43.396Z,97300.44
2023-03-25T05:24:15.032Z,97295.06
2023-03-25T05:26:44.440Z,97295.44
2023-03-25T05:29:17.554Z,97296.88
2023-03-25T05:31:49.273Z,97298.69
2023-03-25T05:34:18.600Z,97300.28
2023-03-25T05:36:48.391Z,97299.28
2023-03-25T05:39:19.150Z,97301.06
2023-03-25T05:41:48.917Z,97300.47
2023-03-25T05:44:20.478Z,97313.75
2023-03-25T05:46:50.996Z,97311.91
2023-03-25T05:49:21.760Z,97310.13
2023-03-25T05:51:54.187Z,97305.13
2023-03-25T05:54:25.603Z,97310.50
2023-03-25T05:56:54.815Z,97309.53
2023-03-25T05:59:26.355Z,97315.72
2023-03-25T06:01:57.574Z,97322.94
2023-03-25T06:04:27.949Z,97318.69
2023-03-25T06:06:58.729Z,97313.31
2023-03-25T06:09:31.104Z,97319.88
2023-03-25T06:12:02.718Z,97316.09
2023-03-25T06:14:33.271Z,97324.31
2023-03-25T06:17:03.347Z,97317.72
2023-03-25T06:19:33.077Z,97322.72
2023-03-25T06:22:04.424Z,97318.72
2023-03-25T06:24:33.450Z,97310.50
2023-03-25T06:27:03.437Z,97315.16
2023-03-25T06:29:37.176Z,97324.16
2023-03-25T06:32:07.106Z,97323.97
2023-03-25T06:34:37.109Z,97322.16
2023-03-25T06:37:07.308Z,97321.56
2023-03-25T06:39:39.051Z,97319.56
2023-03-25T06:42:08.550Z,97309.53
2023-03-25T06:44:40.229Z,97311.13
2023-03-25T06:47:10.831Z,97305.53
2023-03-25T06:49:39.838Z,97308.75
2023-03-25T06:52:08.951Z,97301.91
2023-03-25T06:54:39.786Z,97298.53
2023-03-25T06:57:10.569Z,97300.72
2023-03-25T06:59:42.189Z,97298.72
2023-03-25T07:02:15.041Z,97301.91
2023-03-25T07:04:44.286Z,97303.34
2023-03-25T07:07:13.987Z,97298.34
2023-03-25T07:09:44.093Z,97291.13
2023-03-25T07:12:13.539Z,97286.34
2023-03-25T07:14:47.100Z,97291.56
2023-03-25T07:17:17.126Z,97287.50
2023-03-25T07:19:45.959Z,97285.56
2023-03-25T07:22:16.664Z,97285.75
2023-03-25T07:24:45.638Z,97281.19
2023-03-25T07:27:16.544Z,97279.78
2023-03-25T07:29:47.569Z,97275.94
2023-03-25T07:32:17.655Z,97285.00
2023-03-25T07:34:46.743Z,97282.41
2023-03-25T07:37:17.362Z,97281.59
2023-03-25T07:39:47.354Z,97285.19
2023-03-25T07:42:17.843Z,97283.97
2023-03-25T07:44:49.248Z,97287.19
2023-03-25T07:47:18.818Z,97292.03
2023-03-25T07:49:50.196Z,97295.47
2023-03-25T07:52:20.828Z,97290.81
2023-03-25T07:54:50.369Z,97292.63
2023-03-25T07:57:19.940Z,97296.03
2023-03-25T07:59:51.075Z,97284.84
2023-03-25T08:02:20.799Z,97287.25
2023-03-25T08:04:50.968Z,97293.25
2023-03-25T08:07:21.479Z,97289.25
2023-03-25T08:09:51.506Z,97292.06
2023-03-25T08:12:21.845Z,97290.47
2023-03-25T08:14:52.844Z,97294.91
2023-03-25T08:17:22.330Z,97279.03
2023-03-25T08:19:52.181Z,97272.22
2023-03-25T08:22:22.824Z,97289.88
2023-03-25T08:24:52.580Z,97299.31
2023-03-25T08:27:22.490Z,97302.34
2023-03-25T08:29:57.413Z,97303.38
2023-03-25T08:32:28.471Z,97304.16
2023-03-25T08:34:58.522Z,97314.41
2023-03-25T08:37:27.006Z,97312.59
2023-03-25T08:39:58.714Z,97319.22
2023-03-25T08:42:29.095Z,97317.41
2023-03-25T08:45:00.001Z,97317.00
2023-03-25T08:47:29.396Z,97313.81
2023-03-25T08:49:59.624Z,97314.97
2023-03-25T08:52:29.157Z,97314.81
2023-03-25T08:54:57.625Z,97330.47
2023-03-25T08:57:27.354Z,97313.00
2023-03-25T08:59:56.939Z,97301.56
2023-03-25T09:02:27.080Z,97302.38
2023-03-25T09:04:56.890Z,97297.75
2023-03-25T09:07:26.962Z,97277.44
2023-03-25T09:09:57.551Z,97303.97
2023-03-25T09:12:27.216Z,97315.03
2023-03-25T09:14:57.689Z,97308.41
2023-03-25T09:17:29.187Z,97312.00
2023-03-25T09:19:59.122Z,97287.91
2023-03-25T09:22:29.320Z,97299.16
2023-03-25T09:25:00.044Z,97295.72
2023-03-25T09:27:29.504Z,97293.72
2023-03-25T09:29:59.201Z,97285.69
2023-03-25T09:32:31.715Z,97300.38
2023-03-25T09:35:00.453Z,97284.88
2023-03-25T09:37:30.124Z,97273.22
2023-03-25T09:39:59.700Z,97291.50
2023-03-25T09:43:09.905Z,97294.72
2023-03-25T09:45:44.657Z,97303.75
2023-03-25T09:48:29.204Z,97284.84
2023-03-25T09:51:03.035Z,97293.72
2023-03-25T09:53:42.720Z,97298.94
2023-03-25T09:56:19.736Z,97303.34
2023-03-25T09:58:52.954Z,97311.38
2023-03-25T10:01:37.004Z,97328.25
2023-03-25T10:04:50.588Z,97310.97
2023-03-25T10:07:46.222Z,97309.75
2023-03-25T10:10:28.491Z,97319.38
2023-03-25T10:13:13.491Z,97331.06
2023-03-25T10:15:52.353Z,97324.22
2023-03-25T10:18:47.500Z,97318.41
2023-03-25T10:21:25.954Z,97322.41
2023-03-25T10:24:10.357Z,97329.84
2023-03-25T10:26:47.939Z,97317.16
2023-03-25T10:29:23.154Z,97327.00
2023-03-25T10:31:55.700Z,97323.41
2023-03-25T10:34:38.945Z,97328.63
2023-03-25T10:37:18.149Z,97346.34
2023-03-25T10:39:50.065Z,97349.75
2023-03-25T10:42:30.769Z,97345.91
2023-03-25T10:44:59.496Z,97339.28
2023-03-25T10:47:37.052Z,97345.53
2023-03-25T10:50:09.453Z,97337.50
2023-03-25T10:52:40.012Z,97338.88
2023-03-25T10:55:25.339Z,97364.44
2023-03-25T10:57:56.715Z,97369.84
2023-03-25T11:00:27.275Z,97365.63
2023-03-25T11:02:58.251Z,97370.25
2023-03-25T11:05:30.849Z,97397.78
2023-03-25T11:08:14.987Z,97393.41
2023-03-25T11:10:52.349Z,97381.72
2023-03-25T11:13:25.862Z,97374.53
2023-03-25T11:16:00.253Z,97368.88
2023-03-25T11:18:36.282Z,97351.59
2023-03-25T11:21:12.713Z,97362.47
2023-03-25T11:23:50.628Z,97360.25
2023-03-25T11:26:23.685Z,97337.53
2023-03-25T11:29:02.927Z,97350.56
2023-03-25T11:31:37.482Z,97351.38
2023-03-25T11:34:19.359Z,97368.84
2023-03-25T11:36:56.142Z,97384.91
2023-03-25T11:39:37.591Z,97375.03
2023-03-25T11:42:29.264Z,97373.84
2023-03-25T11:45:00.170Z,97415.88
2023-03-25T11:47:35.096Z,97418.50
2023-03-25T11:50:06.484Z,97400.63
2023-03-25T11:52:44.717Z,97404.44
2023-03-25T11:55:23.840Z,97395.03
2023-03-25T11:57:56.996Z,97397.81
2023-03-25T12:00:37.436Z,97396.59
2023-03-25T12:03:21.104Z,97393.81
2023-03-25T12:06:02.369Z,97407.06
2023-03-25T12:08:44.374Z,97401.63
2023-03-25T12:11:22.318Z,97388.78
2023-03-25T12:14:19.415Z,97381.31
2023-03-25T12:17:01.987Z,97376.88
2023-03-25T12:19:46.993Z,97374.84
2023-03-25T12:22:37.161Z,97381.25
2023-03-25T12:25:30.029Z,97374.78
2023-03-25T12:28:34.969Z,97374.13
2023-03-25T12:31:22.259Z,97380.16
2023-03-25T12:34:10.187Z,97354.56
2023-03-25T12:37:06.433Z,97361.34
2023-03-25T12:39:54.645Z,97356.06
2023-03-25T12:42:40.306Z,97340.50
2023-03-25T12:45:40.164Z,97348.94
2023-03-25T12:48:23.679Z,97344.69
2023-03-25T12:51:06.585Z,97349.06
2023-03-25T12:53:55.813Z,97363.97
2023-03-25T12:56:47.064Z,97346.22
2023-03-25T13:00:14.784Z,97372.78
2023-03-25T13:03:30.212Z,97398.97
2023-03-25T13:06:09.183Z,97375.69
2023-03-25T13:08:49.247Z,97359.22
2023-03-25T13:11:29.106Z,97373.91
2023-03-25T13:14:06.180Z,97360.22
2023-03-25T13:16:39.880Z,97358.78
2023-03-25T13:19:18.837Z,97354.31
2023-03-25T13:21:53.814Z,97354.66
2023-03-25T13:24:34.864Z,97342.09
2023-03-25T13:27:06.505Z,97356.16
2023-03-25T13:29:42.109Z,97348.47
2023-03-25T13:32:23.165Z,97366.13
2023-03-25T13:35:00.092Z,97361.84
2023-03-25T13:37:38.756Z,97354.34
2023-03-25T13:40:28.610Z,97347.22
2023-03-25T13:43:08.354Z,97354.09
2023-03-25T13:45:51.173Z,97342.94
2023-03-25T13:48:28.770Z,97356.59
2023-03-25T13:51:05.404Z,97359.72
2023-03-25T13:53:45.642Z,97337.22
2023-03-25T13:57:05.898Z,97335.22
2023-03-25T14:00:38.674Z,97355.13
2023-03-25T14:04:22.840Z,97330.16
2023-03-25T14:08:01.154Z,97330.72
2023-03-25T14:10:55.519Z,97350.06
2023-03-25T14:13:29.768Z,97362.00
2023-03-25T14:16:07.621Z,97346.28
2023-03-25T14:18:45.031Z,97353.56
2023-03-25T14:21:36.295Z,97324.03
2023-03-25T14:24:13.326Z,97329.19
2023-03-25T14:26:52.602Z,97351.59
2023-03-25T14:29:36.201Z,97346.34
2023-03-25T14:32:32.958Z,97353.13
2023-03-25T14:35:57.952Z,97320.19
2023-03-25T14:38:53.739Z,97322.50
2023-03-25T14:42:00.188Z,97332.41
2023-03-25T14:44:33.023Z,97328.19
2023-03-25T14:47:29.165Z,97333.06
2023-03-25T14:50:07.275Z,97332.63
2023-03-25T14:52:43.216Z,97350.34
2023-03-25T14:55:20.576Z,97369.34
2023-03-25T14:57:52.443Z,97400.34
2023-03-25T15:00:29.720Z,97379.25
2023-03-25T15:03:11.252Z,97375.28
2023-03-25T15:05:42.999Z,97357.78
2023-03-25T15:08:17.898Z,97344.53
2023-03-25T15:11:03.493Z,97345.69
2023-03-25T15:13:39.527Z,97337.38
2023-03-25T15:16:28.328Z,97333.88
2023-03-25T15:19:12.648Z,97335.81
2023-03-25T15:22:22.094Z,97349.31
2023-03-25T15:25:00.147Z,97332.34
2023-03-25T15:28:00.842Z,97341.91
2023-03-25T15:31:14.811Z,97330.09
2023-03-25T15:34:07.199Z,97331.66
2023-03-25T15:37:01.692Z,97316.78
2023-03-25T15:39:59.846Z,97327.28
2023-03-25T15:43:10.985Z,97324.78
2023-03-25T15:46:21.260Z,97314.75
2023-03-25T15:49:14.425Z,97305.53
2023-03-25T15:52:24.961Z,97321.34
2023-03-25T15:54:57.558Z,97312.53
2023-03-25T15:57:34.196Z,97312.09
2023-03-25T16:00:09.584Z,97303.28
2023-03-25T16:02:48.097Z,97306.13
2023-03-25T16:05:21.331Z,97317.22
2023-03-25T16:07:51.693Z,97318.59
2023-03-25T16:10:32.432Z,97308.19
2023-03-25T16:13:07.079Z,97300.06
2023-03-25T16:15:38.533Z,97313.66
2023-03-25T16:18:12.876Z,97312.78
2023-03-25T16:20:43.864Z,97293.13
2023-03-25T16:23:21.667Z,97293.22
2023-03-25T16:25:56.077Z,97316.97
2023-03-25T16:28:33.197Z,97329.94
2023-03-25T16:31:05.083Z,97342.94
2023-03-25T16:33:41.751Z,97414.28
2023-03-25T16:36:17.882Z,97420.97
2023-03-25T16:38:47.037Z,97443.72
2023-03-25T16:41:18.844Z,97458.19
2023-03-25T16:43:47.568Z,97465.94
2023-03-25T16:46:19.528Z,97447.44
2023-03-25T16:48:55.214Z,97442.03
2023-03-25T16:51:29.799Z,97446.50
2023-03-25T16:54:00.351Z,97450.78
2023-03-25T16:56:32.344Z,97453.63
2023-03-25T16:59:07.627Z,97454.03
2023-03-25T17:01:43.198Z,97443.19
2023-03-25T17:04:19.326Z,97450.44
2023-03-25T17:06:53.302Z,97451.22
2023-03-25T17:09:26.421Z,97445.59
2023-03-25T17:11:58.892Z,97448.81
2023-03-25T17:14:37.458Z,97462.16
2023-03-25T17:17:13.397Z,97457.69
2023-03-25T17:19:50.860Z,97459.31
2023-03-25T17:22:28.788Z,97462.34
2023-03-25T17:25:00.675Z,97457.53
2023-03-25T17:27:37.057Z,97463.34
2023-03-25T17:30:20.244Z,97464.97
2023-03-25T17:32:51.592Z,97464.97
2023-03-25T17:35:28.114Z,97466.19
2023-03-25T17:37:59.909Z,97474.03
2023-03-25T17:40:31.012Z,97463.41
2023-03-25T17:43:00.153Z,97477.25
2023-03-25T17:45:30.608Z,97466.59
2023-03-25T17:48:01.180Z,97470.63
2023-03-25T17:50:33.735Z,97474.63
2023-03-25T17:53:03.704Z,97471.44
2023-03-25T17:55:33.956Z,97469.81
2023-03-25T17:58:03.536Z,97465.00
2023-03-25T18:00:34.016Z,97463.78
2023-03-25T18:03:04.109Z,97460.97
2023-03-25T18:05:35.110Z,97467.59
2023-03-25T18:08:04.440Z,97466.19
2023-03-25T18:10:35.615Z,97475.44
2023-03-25T18:13:05.941Z,97494.03
2023-03-25T18:15:35.579Z,97490.03
2023-03-25T18:18:05.626Z,97483.19
2023-03-25T18:20:38.557Z,97481.00
2023-03-25T18:23:08.985Z,97484.41
2023-03-25T18:25:39.064Z,97476.53
2023-03-25T18:28:08.944Z,97501.66
2023-03-25T18:30:44.374Z,97499.88
2023-03-25T18:33:13.869Z,97496.44
2023-03-25T18:35:45.628Z,97490.19
2023-03-25T18:38:20.152Z,97499.47
2023-03-25T18:40:50.786Z,97500.06
2023-03-25T18:43:20.785Z,97496.44
2023-03-25T18:45:51.225Z,97500.88
2023-03-25T18:48:23.038Z,97502.09
2023-03-25T18:50:57.136Z,97498.84
2023-03-25T18:53:29.946Z,97501.47
2023-03-25T18:56:02.325Z,97510.75
2023-03-25T18:58:34.138Z,97529.81
2023-03-25T19:01:08.021Z,97527.41
2023-03-25T19:03:39.647Z,97519.56
2023-03-25T19:06:13.003Z,97521.38
2023-03-25T19:08:44.455Z,97530.44
2023-03-25T19:11:20.679Z,97528.81
2023-03-25T19:13:52.143Z,97516.38
2023-03-25T19:16:22.791Z,97528.44
2023-03-25T19:18:52.328Z,97529.44
2023-03-25T19:21:22.985Z,97532.69
2023-03-25T19:23:52.777Z,97531.06
2023-03-25T19:26:22.914Z,97537.66
2023-03-25T19:28:52.450Z,97543.66
2023-03-25T19:31:22.065Z,97543.66
2023-03-25T19:33:52.592Z,97542.84
2023-03-25T19:36:25.812Z,97545.84
2023-03-25T19:39:04.311Z,97546.22
2023-03-25T19:41:35.361Z,97546.84
2023-03-25T19:44:04.802Z,97550.25
2023-03-25T19:46:35.840Z,97555.28
2023-03-25T19:49:05.900Z,97545.66
2023-03-25T19:51:35.635Z,97543.66
2023-03-25T19:54:06.635Z,97540.84
2023-03-25T19:56:35.548Z,97539.22
2023-03-25T19:59:03.957Z,97533.19
2023-03-25T20:01:34.972Z,97536.03
2023-03-25T20:04:05.522Z,97531.22
2023-03-25T20:06:37.708Z,97531.56
2023-03-25T20:09:08.035Z,97527.16
2023-03-25T20:11:38.033Z,97539.22
2023-03-25T20:14:08.241Z,97530.19
2023-03-25T20:16:37.245Z,97534.41
2023-03-25T20:19:05.857Z,97537.03
2023-03-25T20:21:38.079Z,97548.47
2023-03-25T20:24:09.473Z,97544.06
2023-03-25T20:26:38.477Z,97538.03
2023-03-25T20:29:08.006Z,97530.41
2023-03-25T20:31:37.160Z,97530.78
2023-03-25T20:34:06.860Z,97537.19
2023-03-25T20:36:38.892Z,97536.78
2023-03-25T20:39:07.881Z,97546.38
2023-03-25T20:41:37.598Z,97542.75
2023-03-25T20:44:07.018Z,97534.94
2023-03-25T20:46:35.990Z,97541.78
2023-03-25T20:49:09.616Z,97544.81
2023-03-25T20:51:40.896Z,97542.78
2023-03-25T20:54:10.567Z,97537.56
2023-03-25T20:56:40.637Z,97540.00
2023-03-25T20:59:13.837Z,97541.59
2023-03-25T21:01:42.406Z,97540.19
2023-03-25T21:04:14.210Z,97540.16
2023-03-25T21:06:44.426Z,97529.88
2023-03-25T21:09:14.844Z,97539.13
2023-03-25T21:11:43.922Z,97532.88
2023-03-25T21:14:14.497Z,97524.88
2023-03-25T21:16:44.358Z,97533.53
2023-03-25T21:19:13.786Z,97539.34
2023-03-25T21:21:45.273Z,97537.53
2023-03-25T21:24:17.247Z,97551.41
2023-03-25T21:26:47.725Z,97545.38
2023-03-25T21:29:18.410Z,97546.38
2023-03-25T21:31:48.128Z,97548.16
2023-03-25T21:34:17.633Z,97543.56
2023-03-25T21:36:48.514Z,97541.78
2023-03-25T21:39:18.003Z,97546.78
2023-03-25T21:41:48.025Z,97547.19
2023-03-25T21:44:17.518Z,97536.94
2023-03-25T21:46:46.542Z,97537.94
2023-03-25T21:49:16.043Z,97544.94
2023-03-25T21:51:56.639Z,97537.13
2023-03-25T21:54:25.832Z,97542.72
2023-03-25T21:56:56.398Z,97534.28
2023-03-25T21:59:24.993Z,97540.72
2023-03-25T22:01:53.981Z,97530.50
2023-03-25T22:04:24.787Z,97533.28
2023-03-25T22:06:56.731Z,97532.06
2023-03-25T22:09:26.283Z,97539.88
2023-03-25T22:11:56.209Z,97535.88
2023-03-25T22:14:26.461Z,97537.50
2023-03-25T22:16:55.564Z,97536.69
2023-03-25T22:19:24.795Z,97537.66
2023-03-25T22:21:56.211Z,97538.88
2023-03-25T22:24:28.788Z,97534.63
2023-03-25T22:26:59.978Z,97538.25
2023-03-25T22:29:29.418Z,97537.03
2023-03-25T22:32:07.353Z,97543.63
2023-03-25T22:34:36.218Z,97546.81
2023-03-25T22:37:06.207Z,97536.19
2023-03-25T22:39:35.971Z,97543.00
2023-03-25T22:42:06.959Z,97539.97
2023-03-25T22:44:35.958Z,97536.16
2023-03-25T22:47:05.510Z,97544.13
2023-03-25T22:49:35.424Z,97540.88
2023-03-25T22:52:07.834Z,97553.94
2023-03-25T22:54:37.762Z,97555.34
2023-03-25T22:57:06.898Z,97553.72
2023-03-25T22:59:37.457Z,97560.13
2023-03-25T23:02:07.789Z,97554.66
2023-03-25T23:04:38.530Z,97554.88
2023-03-25T23:07:09.315Z,97557.81
2023-03-25T23:09:42.718Z,97554.44
2023-03-25T23:12:14.265Z,97549.78
2023-03-25T23:14:49.686Z,97545.13
2023-03-25T23:17:19.367Z,97546.69
2023-03-25T23:19:48.478Z,97535.63
2023-03-25T23:22:20.302Z,97539.44
2023-03-25T23:24:48.963Z,97542.81
2023-03-25T23:27:18.962Z,97540.75
2023-03-25T23:29:48.486Z,97543.13
2023-03-25T23:32:17.449Z,97537.28
2023-03-25T23:34:46.991Z,97531.84
2023-03-25T23:37:18.393Z,97529.63
2023-03-25T23:39:48.890Z,97519.91
2023-03-25T23:42:17.249Z,97524.63
2023-03-25T23:44:47.138Z,97526.25
2023-03-25T23:47:16.802Z,97528.44
2023-03-25T23:49:46.129Z,97514.97
2023-03-25T23:52:15.935Z,97527.38
2023-03-25T23:54:49.226Z,97514.09
2023-03-25T23:57:20.167Z,97520.66
2023-03-25T23:59:50.746Z,97519.06
